createdAt,value
2019-05-19T00:00:22.545Z,89.12
2019-05-19T00:02:55.139Z,89.10
2019-05-19T00:05:28.210Z,89.30
2019-05-19T00:08:00.888Z,89.80
2019-05-19T00:10:33.569Z,89.87
2019-05-19T00:13:05.833Z,90.06
2019-05-19T00:15:38.069Z,90.20
2019-05-19T00:18:10.687Z,89.98
2019-05-19T00:20:43.359Z,90.32
2019-05-19T00:23:16.048Z,90.03
2019-05-19T00:25:48.726Z,89.53
2019-05-19T00:28:21.402Z,89.91
2019-05-19T00:30:54.189Z,89.31
2019-05-19T00:33:27.369Z,89.18
2019-05-19T00:36:00.054Z,89.04
2019-05-19T00:38:32.737Z,89.52
2019-05-19T00:41:05.509Z,90.14
2019-05-19T00:43:38.706Z,90.18
2019-05-19T00:46:11.385Z,89.80
2019-05-19T00:48:44.272Z,89.53
2019-05-19T00:51:17.036Z,89.85
2019-05-19T00:53:49.739Z,90.73
2019-05-19T00:56:23.336Z,90.35
2019-05-19T00:58:59.282Z,90.48
2019-05-19T01:01:32.065Z,90.69
2019-05-19T01:04:04.763Z,90.84
2019-05-19T01:06:36.980Z,91.04
2019-05-19T01:09:09.703Z,91.45
2019-05-19T01:11:42.271Z,92.21
2019-05-19T01:14:15.447Z,92.29
2019-05-19T01:16:48.553Z,92.33
2019-05-19T01:19:21.235Z,92.18
2019-05-19T01:21:54.927Z,92.05
2019-05-19T01:24:27.817Z,91.89
2019-05-19T01:27:00.359Z,92.57
2019-05-19T01:29:33.180Z,93.11
2019-05-19T01:32:06.065Z,93.01
2019-05-19T01:34:38.738Z,93.00
2019-05-19T01:37:10.969Z,94.02
2019-05-19T01:39:43.582Z,93.92
2019-05-19T01:42:16.165Z,95.12
2019-05-19T01:44:48.784Z,95.49
2019-05-19T01:47:22.747Z,95.02
2019-05-19T01:50:15.068Z,95.13
2019-05-19T01:52:30.664Z,95.25
2019-05-19T01:55:03.343Z,94.79
2019-05-19T01:57:36.124Z,96.15
2019-05-19T02:00:11.069Z,97.77
2019-05-19T02:02:43.740Z,98.84
2019-05-19T02:05:17.132Z,99.27
2019-05-19T02:07:49.924Z,99.17
2019-05-19T02:10:23.314Z,99.61
2019-05-19T02:12:55.935Z,100.00
2019-05-19T02:15:28.677Z,100.00
2019-05-19T02:18:01.357Z,100.00
2019-05-19T02:20:34.120Z,100.00
2019-05-19T02:23:06.809Z,98.65
2019-05-19T02:25:39.491Z,97.54
2019-05-19T02:28:12.188Z,97.35
2019-05-19T02:30:44.858Z,97.08
2019-05-19T02:33:17.091Z,97.29
2019-05-19T02:35:49.665Z,97.08
2019-05-19T02:38:22.379Z,97.38
2019-05-19T02:40:58.334Z,97.17
2019-05-19T02:43:31.422Z,97.92
2019-05-19T02:46:05.638Z,97.87
2019-05-19T02:48:40.560Z,97.55
2019-05-19T02:51:15.215Z,96.98
2019-05-19T02:53:48.277Z,97.49
2019-05-19T02:56:22.793Z,98.22
2019-05-19T02:58:57.119Z,98.16
2019-05-19T03:01:29.789Z,98.75
2019-05-19T03:04:02.374Z,100.00
2019-05-19T03:06:35.059Z,100.00
2019-05-19T03:09:07.739Z,100.00
2019-05-19T03:11:40.521Z,100.00
2019-05-19T03:14:13.200Z,100.00
2019-05-19T03:16:45.870Z,100.00
2019-05-19T03:19:18.568Z,100.00
2019-05-19T03:21:51.245Z,100.00
2019-05-19T03:24:24.427Z,100.00
2019-05-19T03:26:57.104Z,100.00
2019-05-19T03:29:31.322Z,100.00
2019-05-19T03:32:11.698Z,100.00
2019-05-19T03:34:39.858Z,100.00
2019-05-19T03:37:12.531Z,100.00
2019-05-19T03:39:45.207Z,100.00
2019-05-19T03:42:17.995Z,100.00
2019-05-19T03:44:50.666Z,100.00
2019-05-19T03:47:24.473Z,100.00
2019-05-19T03:49:57.152Z,100.00
2019-05-19T03:52:29.940Z,100.00
2019-05-19T03:55:03.841Z,100.00
2019-05-19T03:57:36.521Z,100.00
2019-05-19T04:00:10.923Z,100.00
2019-05-19T04:02:43.733Z,100.00
2019-05-19T04:05:16.511Z,100.00
2019-05-19T04:07:49.183Z,100.00
2019-05-19T04:10:22.071Z,100.00
2019-05-19T04:12:55.071Z,100.00
2019-05-19T04:15:28.040Z,100.00
2019-05-19T04:18:00.725Z,100.00
2019-05-19T04:20:34.164Z,100.00
2019-05-19T04:23:06.909Z,100.00
2019-05-19T04:25:40.609Z,100.00
2019-05-19T04:28:13.897Z,99.48
2019-05-19T04:30:46.773Z,98.52
2019-05-19T04:36:20.813Z,97.93
2019-05-19T04:38:53.482Z,97.91
2019-05-19T04:41:26.246Z,97.97
2019-05-19T04:43:58.942Z,97.72
2019-05-19T04:50:13.847Z,97.01
2019-05-19T04:52:56.966Z,97.33
2019-05-19T04:55:30.459Z,97.16
2019-05-19T04:58:03.142Z,96.66
2019-05-19T05:00:35.814Z,95.88
2019-05-19T05:03:08.075Z,96.72
2019-05-19T05:05:40.763Z,96.27
2019-05-19T05:08:29.033Z,95.89
2019-05-19T05:10:48.074Z,95.73
2019-05-19T05:13:20.742Z,95.75
2019-05-19T05:15:53.323Z,95.63
2019-05-19T05:18:27.674Z,95.64
2019-05-19T05:21:00.530Z,95.52
2019-05-19T05:23:33.311Z,95.22
2019-05-19T05:26:05.989Z,94.45
2019-05-19T05:28:38.431Z,94.59
2019-05-19T05:31:15.337Z,94.19
2019-05-19T05:33:46.887Z,93.97
2019-05-19T05:36:19.467Z,93.85
2019-05-19T05:38:52.202Z,93.07
2019-05-19T05:41:24.820Z,93.08
2019-05-19T05:43:57.609Z,92.84
2019-05-19T05:46:30.710Z,92.92
2019-05-19T05:49:02.968Z,92.92
2019-05-19T05:51:35.751Z,92.79
2019-05-19T05:54:09.344Z,92.36
2019-05-19T05:56:42.126Z,92.78
2019-05-19T05:59:14.801Z,92.88
2019-05-19T06:01:47.738Z,92.27
2019-05-19T06:04:20.381Z,91.75
2019-05-19T06:06:53.358Z,91.86
2019-05-19T06:09:26.046Z,91.94
2019-05-19T06:11:59.081Z,92.21
2019-05-19T06:14:32.414Z,92.44
2019-05-19T06:17:05.426Z,92.65
2019-05-19T06:19:38.090Z,92.62
2019-05-19T06:22:10.863Z,92.72
2019-05-19T06:24:43.542Z,93.11
2019-05-19T06:27:16.330Z,94.49
2019-05-19T06:29:49.624Z,94.80
2019-05-19T06:32:41.963Z,94.97
2019-05-19T06:35:15.391Z,94.79
2019-05-19T06:37:48.450Z,93.90
2019-05-19T06:40:22.655Z,93.30
2019-05-19T06:42:55.345Z,92.21
2019-05-19T06:45:28.024Z,90.90
2019-05-19T06:48:00.715Z,91.18
2019-05-19T06:50:33.382Z,90.17
2019-05-19T06:53:13.885Z,88.90
2019-05-19T06:55:39.834Z,89.82
2019-05-19T06:58:12.402Z,87.36
2019-05-19T07:00:45.634Z,84.71
2019-05-19T07:03:18.216Z,83.44
2019-05-19T07:05:50.889Z,83.61
2019-05-19T07:08:23.575Z,84.83
2019-05-19T07:10:56.186Z,87.74
2019-05-19T07:13:28.824Z,90.07
2019-05-19T07:16:01.144Z,90.36
2019-05-19T07:18:33.773Z,91.61
2019-05-19T07:21:06.440Z,93.37
2019-05-19T07:23:39.123Z,94.61
2019-05-19T07:26:12.022Z,95.25
2019-05-19T07:28:44.686Z,96.21
2019-05-19T07:31:17.374Z,96.74
2019-05-19T07:33:50.104Z,95.00
2019-05-19T07:36:24.556Z,95.39
2019-05-19T07:38:59.539Z,93.67
2019-05-19T07:41:32.499Z,86.18
2019-05-19T07:44:05.161Z,89.13
2019-05-19T07:46:39.278Z,92.56
2019-05-19T07:49:11.955Z,94.87
2019-05-19T07:51:44.690Z,96.63
2019-05-19T07:54:17.529Z,98.65
2019-05-19T07:56:51.854Z,100.00
2019-05-19T07:59:24.414Z,100.00
2019-05-19T08:01:56.073Z,100.00
2019-05-19T08:04:28.751Z,100.00
2019-05-19T08:07:01.435Z,100.00
2019-05-19T08:09:34.116Z,100.00
2019-05-19T08:12:06.900Z,100.00
2019-05-19T08:14:40.290Z,100.00
2019-05-19T08:17:13.175Z,100.00
2019-05-19T08:19:48.652Z,100.00
2019-05-19T08:22:24.433Z,100.00
2019-05-19T08:24:57.043Z,100.00
2019-05-19T08:47:15.443Z,86.39
2019-05-19T08:49:48.103Z,85.29
2019-05-19T08:52:20.786Z,81.19
2019-05-19T08:54:53.459Z,76.41
2019-05-19T08:57:25.767Z,75.75
2019-05-19T08:59:58.006Z,80.97
2019-05-19T09:02:30.681Z,80.97
2019-05-19T09:05:03.358Z,77.72
2019-05-19T09:07:36.032Z,76.86
2019-05-19T09:10:13.419Z,72.50
2019-05-19T09:12:46.112Z,71.58
2019-05-19T09:15:18.797Z,73.62
2019-05-19T09:17:54.095Z,72.43
2019-05-19T09:20:25.326Z,70.40
2019-05-19T09:22:58.056Z,70.51
2019-05-19T09:25:30.731Z,70.75
2019-05-19T09:28:03.405Z,70.91
2019-05-19T09:30:36.089Z,71.84
2019-05-19T09:33:08.768Z,67.57
2019-05-19T09:35:41.337Z,69.58
2019-05-19T09:38:14.081Z,65.72
2019-05-19T09:40:47.007Z,67.89
2019-05-19T09:43:19.685Z,68.47
2019-05-19T09:45:52.363Z,70.01
2019-05-19T09:48:25.050Z,66.82
2019-05-19T09:50:57.718Z,66.71
2019-05-19T09:53:30.467Z,66.31
2019-05-19T09:56:02.982Z,67.15
2019-05-19T09:58:35.662Z,65.36
2019-05-19T10:01:09.266Z,66.10
2019-05-19T10:03:41.947Z,64.77
2019-05-19T10:06:14.615Z,63.82
2019-05-19T10:08:51.127Z,63.50
2019-05-19T10:11:32.842Z,62.97
2019-05-19T10:14:05.570Z,63.20
2019-05-19T10:16:38.262Z,64.01
2019-05-19T10:19:11.023Z,61.95
2019-05-19T10:21:44.821Z,61.36
2019-05-19T10:24:17.509Z,64.26
2019-05-19T10:26:50.179Z,64.59
2019-05-19T10:29:22.864Z,66.79
2019-05-19T10:31:55.594Z,67.38
2019-05-19T10:34:28.226Z,67.78
2019-05-19T10:37:00.485Z,69.13
2019-05-19T10:39:33.174Z,69.47
2019-05-19T10:42:05.853Z,69.67
2019-05-19T10:44:38.522Z,66.85
2019-05-19T10:47:11.105Z,64.55
2019-05-19T10:49:43.782Z,63.37
2019-05-19T10:52:16.455Z,60.79
2019-05-19T10:54:49.016Z,60.18
2019-05-19T10:57:21.624Z,59.75
2019-05-19T10:59:54.301Z,60.69
2019-05-19T11:02:26.982Z,60.23
2019-05-19T11:04:59.656Z,59.59
2019-05-19T11:07:32.344Z,59.16
2019-05-19T11:10:07.067Z,57.47
2019-05-19T11:12:39.731Z,59.24
2019-05-19T11:15:13.229Z,59.11
2019-05-19T11:17:45.913Z,58.91
2019-05-19T11:20:18.696Z,60.11
2019-05-19T11:22:51.376Z,60.54
2019-05-19T11:25:33.465Z,55.90
2019-05-19T11:27:59.499Z,53.53
2019-05-19T11:30:32.490Z,50.51
2019-05-19T11:33:05.064Z,53.22
2019-05-19T11:35:37.322Z,53.58
2019-05-19T11:38:10.016Z,51.06
2019-05-19T11:40:42.688Z,52.58
2019-05-19T11:43:15.268Z,53.67
2019-05-19T11:45:47.946Z,52.76
2019-05-19T11:48:20.622Z,48.36
2019-05-19T11:50:53.305Z,49.48
2019-05-19T11:53:25.881Z,50.07
2019-05-19T11:56:06.377Z,44.29
2019-05-19T11:58:32.854Z,45.18
2019-05-19T12:01:05.481Z,44.07
2019-05-19T12:03:38.138Z,45.86
2019-05-19T12:06:12.356Z,43.63
2019-05-19T12:08:45.033Z,45.61
2019-05-19T12:11:17.706Z,45.22
2019-05-19T12:13:50.386Z,45.43
2019-05-19T12:16:23.071Z,41.07
2019-05-19T12:18:57.611Z,44.03
2019-05-19T12:21:29.954Z,38.52
2019-05-19T12:24:03.566Z,39.75
2019-05-19T12:26:36.273Z,40.60
2019-05-19T12:29:08.925Z,38.47
2019-05-19T12:31:41.757Z,41.13
2019-05-19T12:34:14.282Z,42.01
2019-05-19T12:36:47.977Z,38.91
2019-05-19T12:39:20.870Z,39.35
2019-05-19T12:41:53.550Z,38.76
2019-05-19T12:44:26.221Z,40.28
2019-05-19T12:46:58.899Z,38.28
2019-05-19T12:49:31.584Z,41.93
2019-05-19T12:52:04.271Z,38.33
2019-05-19T12:54:36.798Z,42.69
2019-05-19T12:57:09.413Z,42.17
2019-05-19T12:59:42.099Z,45.48
2019-05-19T13:02:14.778Z,46.07
2019-05-19T13:05:03.558Z,45.98
2019-05-19T13:07:21.771Z,46.19
2019-05-19T13:09:54.664Z,47.44
2019-05-19T13:12:27.370Z,47.49
2019-05-19T13:14:59.913Z,47.31
2019-05-19T13:17:32.593Z,46.09
2019-05-19T13:20:05.379Z,45.53
2019-05-19T13:22:38.130Z,47.49
2019-05-19T13:25:10.733Z,47.03
2019-05-19T13:27:43.714Z,47.87
2019-05-19T13:30:16.296Z,46.36
2019-05-19T13:32:48.976Z,47.61
2019-05-19T13:35:22.054Z,49.19
2019-05-19T13:37:55.050Z,46.19
2019-05-19T13:40:27.621Z,47.34
2019-05-19T13:42:59.279Z,48.43
2019-05-19T13:45:31.957Z,50.00
2019-05-19T13:48:04.643Z,48.77
2019-05-19T13:50:37.218Z,49.05
2019-05-19T13:53:09.894Z,50.24
2019-05-19T13:55:42.883Z,48.96
2019-05-19T13:58:15.139Z,50.23
2019-05-19T14:00:47.722Z,48.92
2019-05-19T14:03:20.406Z,49.22
2019-05-19T14:05:53.081Z,50.07
2019-05-19T14:08:25.826Z,49.52
2019-05-19T14:10:58.411Z,47.55
2019-05-19T14:13:32.552Z,49.36
2019-05-19T14:16:05.135Z,51.61
2019-05-19T14:18:37.930Z,49.99
2019-05-19T14:21:10.498Z,49.99
2019-05-19T14:23:43.175Z,48.70
2019-05-19T14:26:15.847Z,48.70
2019-05-19T14:28:48.100Z,46.52
2019-05-19T14:31:21.956Z,44.66
2019-05-19T14:33:54.182Z,44.90
2019-05-19T14:36:26.404Z,43.98
2019-05-19T14:39:05.431Z,43.98
2019-05-19T14:41:37.964Z,43.45
2019-05-19T14:44:10.654Z,42.24
2019-05-19T14:46:43.217Z,41.91
2019-05-19T14:49:15.895Z,39.49
2019-05-19T14:51:48.470Z,39.76
2019-05-19T14:54:21.161Z,39.04
2019-05-19T14:56:53.744Z,35.77
2019-05-19T14:59:26.412Z,36.39
2019-05-19T15:01:59.096Z,37.45
2019-05-19T15:04:31.769Z,38.86
2019-05-19T15:07:03.989Z,36.70
2019-05-19T15:09:36.614Z,35.46
2019-05-19T15:12:09.248Z,33.67
2019-05-19T15:14:41.866Z,32.30
2019-05-19T15:17:14.451Z,33.48
2019-05-19T15:19:47.451Z,31.81
2019-05-19T15:22:20.014Z,31.13
2019-05-19T15:24:52.700Z,32.59
2019-05-19T15:27:25.370Z,32.70
2019-05-19T15:30:11.880Z,32.43
2019-05-19T15:32:32.264Z,32.06
2019-05-19T15:35:06.788Z,32.40
2019-05-19T15:37:40.400Z,31.39
2019-05-19T15:40:13.581Z,32.41
2019-05-19T15:42:46.265Z,31.86
2019-05-19T15:45:19.046Z,32.26
2019-05-19T15:47:51.622Z,31.47
2019-05-19T15:50:24.085Z,34.27
2019-05-19T15:52:56.669Z,36.27
2019-05-19T15:55:29.345Z,40.87
2019-05-19T15:58:15.479Z,41.94
2019-05-19T16:00:36.242Z,43.84
2019-05-19T16:03:08.814Z,42.82
2019-05-19T16:05:41.504Z,41.73
2019-05-19T16:08:14.696Z,41.79
2019-05-19T16:10:47.366Z,43.89
2019-05-19T16:13:21.971Z,44.09
2019-05-19T16:15:53.961Z,46.00
2019-05-19T16:18:26.533Z,48.73
2019-05-19T16:20:59.216Z,50.32
2019-05-19T16:23:31.795Z,51.60
2019-05-19T16:26:04.463Z,52.79
2019-05-19T16:28:37.061Z,53.61
2019-05-19T16:31:09.787Z,55.71
2019-05-19T16:33:42.406Z,56.62
2019-05-19T16:36:15.078Z,57.33
2019-05-19T16:38:48.070Z,57.98
2019-05-19T16:41:20.327Z,59.08
2019-05-19T16:43:54.142Z,59.85
2019-05-19T16:46:26.820Z,59.97
2019-05-19T16:48:59.402Z,60.51
2019-05-19T16:51:32.020Z,61.52
2019-05-19T16:54:12.229Z,61.43
2019-05-19T16:56:45.162Z,61.93
2019-05-19T16:59:17.803Z,62.66
2019-05-19T17:01:50.485Z,63.17
2019-05-19T17:04:23.161Z,62.99
2019-05-19T17:06:56.137Z,63.76
2019-05-19T17:09:28.703Z,64.39
2019-05-19T17:12:06.708Z,65.14
2019-05-19T17:14:38.285Z,65.52
2019-05-19T17:17:11.665Z,66.81
2019-05-19T17:19:45.460Z,67.42
2019-05-19T17:22:18.141Z,68.46
2019-05-19T17:24:50.719Z,69.11
2019-05-19T17:27:23.400Z,69.84
2019-05-19T17:29:55.944Z,70.21
2019-05-19T17:32:28.664Z,70.41
2019-05-19T17:35:01.246Z,70.61
2019-05-19T17:37:33.910Z,70.62
2019-05-19T17:40:08.843Z,70.45
2019-05-19T17:42:43.288Z,70.74
2019-05-19T17:45:15.950Z,71.53
2019-05-19T17:47:53.002Z,71.69
2019-05-19T17:50:35.993Z,72.25
2019-05-19T17:53:08.374Z,71.95
2019-05-19T17:55:42.223Z,71.76
2019-05-19T17:58:14.911Z,72.42
2019-05-19T18:00:47.477Z,72.15
2019-05-19T18:03:20.168Z,72.54
2019-05-19T18:05:52.752Z,72.13
2019-05-19T18:08:25.827Z,70.99
2019-05-19T18:10:58.436Z,70.69
2019-05-19T18:13:31.317Z,70.07
2019-05-19T18:16:04.271Z,69.73
2019-05-19T18:18:36.948Z,70.11
2019-05-19T18:21:09.553Z,68.78
2019-05-19T18:23:42.208Z,69.76
2019-05-19T18:26:14.896Z,69.59
2019-05-19T18:28:47.565Z,70.88
2019-05-19T18:31:20.143Z,71.10
2019-05-19T18:33:53.284Z,70.63
2019-05-19T18:36:25.911Z,72.03
2019-05-19T18:38:58.539Z,72.96
2019-05-19T18:41:31.170Z,74.33
2019-05-19T18:44:04.053Z,73.88
2019-05-19T18:46:36.735Z,75.12
2019-05-19T18:49:09.432Z,76.13
2019-05-19T18:51:41.989Z,77.55
2019-05-19T18:54:14.671Z,78.19
2019-05-19T18:56:50.588Z,79.02
2019-05-19T18:59:21.921Z,79.70
2019-05-19T19:01:54.541Z,80.78
2019-05-19T19:04:27.232Z,81.23
2019-05-19T19:06:59.862Z,81.89
2019-05-19T19:09:32.893Z,82.49
2019-05-19T19:12:05.736Z,83.43
2019-05-19T19:14:38.462Z,84.28
2019-05-19T19:17:11.139Z,84.78
2019-05-19T19:19:43.849Z,85.77
2019-05-19T19:22:16.496Z,85.67
2019-05-19T19:24:49.188Z,82.89
2019-05-19T19:27:21.846Z,81.45
2019-05-19T19:30:03.345Z,80.79
2019-05-19T19:32:30.994Z,80.19
2019-05-19T19:35:04.380Z,79.75
2019-05-19T19:37:36.993Z,79.33
2019-05-19T19:40:12.914Z,79.55
2019-05-19T19:42:45.515Z,80.44
2019-05-19T19:45:18.191Z,80.38
2019-05-19T19:47:50.761Z,80.89
2019-05-19T19:50:23.441Z,81.28
2019-05-19T19:52:56.018Z,81.82
2019-05-19T19:55:28.696Z,81.85
2019-05-19T19:58:01.316Z,81.90
2019-05-19T20:00:42.340Z,82.29
2019-05-19T20:03:15.532Z,82.45
2019-05-19T20:05:49.748Z,82.17
2019-05-19T20:08:22.336Z,82.99
2019-05-19T20:10:55.427Z,83.12
2019-05-19T20:13:28.010Z,83.02
2019-05-19T20:16:00.618Z,82.66
2019-05-19T20:18:33.366Z,82.60
2019-05-19T20:21:05.617Z,82.99
2019-05-19T20:23:38.300Z,82.73
2019-05-19T20:26:10.984Z,82.39
2019-05-19T20:28:43.193Z,82.23
2019-05-19T20:31:15.830Z,82.32
2019-05-19T20:33:48.713Z,82.94
2019-05-19T20:36:21.405Z,82.88
2019-05-19T20:38:53.966Z,82.75
2019-05-19T20:41:26.642Z,83.42
2019-05-19T20:43:59.220Z,83.46
2019-05-19T20:46:31.905Z,83.61
2019-05-19T20:49:05.696Z,83.84
2019-05-19T20:51:38.387Z,84.13
2019-05-19T20:54:10.961Z,84.55
2019-05-19T20:56:43.640Z,84.61
2019-05-19T20:59:16.229Z,84.82
2019-05-19T21:01:49.131Z,84.63
2019-05-19T21:04:21.783Z,84.68
2019-05-19T21:06:54.463Z,84.77
2019-05-19T21:09:27.038Z,85.66
2019-05-19T21:11:59.818Z,85.36
2019-05-19T21:14:32.028Z,85.34
2019-05-19T21:17:04.671Z,84.77
2019-05-19T21:19:37.251Z,85.12
2019-05-19T21:22:11.059Z,84.83
2019-05-19T21:24:43.542Z,85.29
2019-05-19T21:27:16.204Z,85.76
2019-05-19T21:29:48.776Z,85.85
2019-05-19T21:32:22.175Z,85.77
2019-05-19T21:34:54.381Z,85.85
2019-05-19T21:37:27.023Z,85.78
2019-05-19T21:39:59.612Z,86.11
2019-05-19T21:42:31.972Z,85.38
2019-05-19T21:45:04.912Z,86.11
2019-05-19T21:47:37.540Z,86.48
2019-05-19T21:50:11.180Z,86.13
2019-05-19T21:52:43.821Z,86.07
2019-05-19T21:55:16.031Z,86.22
2019-05-19T21:57:48.771Z,86.62
2019-05-19T22:00:23.596Z,86.79
2019-05-19T22:02:57.434Z,86.41
2019-05-19T22:05:29.631Z,87.12
2019-05-19T22:08:06.857Z,87.00
2019-05-19T22:10:39.437Z,86.41
2019-05-19T22:13:12.134Z,86.02
2019-05-19T22:15:44.788Z,86.52
2019-05-19T22:18:17.466Z,86.62
2019-05-19T22:20:50.099Z,86.70
2019-05-19T22:23:22.730Z,86.98
2019-05-19T22:25:54.955Z,87.14
2019-05-19T22:28:27.669Z,87.44
2019-05-19T22:31:00.286Z,87.76
2019-05-19T22:33:32.929Z,87.94
2019-05-19T22:36:05.562Z,88.41
2019-05-19T22:38:38.178Z,88.35
2019-05-19T22:41:10.755Z,88.70
2019-05-19T22:43:43.439Z,88.70
2019-05-19T22:46:16.124Z,88.69
2019-05-19T22:48:48.807Z,88.74
2019-05-19T22:51:22.840Z,89.00
2019-05-19T22:53:55.781Z,88.58
2019-05-19T22:56:28.367Z,88.78
2019-05-19T22:59:00.942Z,89.31
2019-05-19T23:01:33.728Z,89.08
2019-05-19T23:04:06.647Z,89.12
2019-05-19T23:06:39.391Z,89.28
2019-05-19T23:09:12.379Z,89.03
2019-05-19T23:11:44.592Z,89.81
2019-05-19T23:14:18.373Z,89.28
2019-05-19T23:16:52.163Z,90.10
2019-05-19T23:19:24.835Z,90.34
2019-05-19T23:21:57.517Z,90.26
2019-05-19T23:24:30.297Z,90.86
2019-05-19T23:27:02.874Z,91.43
2019-05-19T23:29:35.692Z,91.29
2019-05-19T23:32:08.247Z,91.43
2019-05-19T23:34:40.910Z,90.85
2019-05-19T23:37:13.594Z,91.83
2019-05-19T23:39:46.276Z,92.35
2019-05-19T23:42:18.847Z,92.59
2019-05-19T23:44:52.652Z,92.76
2019-05-19T23:47:25.334Z,93.18
2019-05-19T23:49:58.025Z,93.28
2019-05-19T23:52:30.907Z,93.76
2019-05-19T23:55:03.986Z,93.90
2019-05-19T23:57:36.592Z,94.44
